Latest Weather Observations for Emerald

IDQ60801

Issued at 2:32 am EST Monday 20 February 2017 (issued every 30 minutes, with the page automatically refreshed every 10 minutes)

About weather observations | Map of weather stations | Latest weather observations for QLD | Other Formats
Station Details ID: 035264 Name: EMERALD AIRPORT Lat: -23.57 Lon: 148.18 Height: 189.4 m
Data from the previous 72 hours. | See also: Recent months at Emerald
Date/Time
EST
Temp
°C
App
Temp
°C
Dew
Point
°C
Rel
Hum
%
Delta-T
°C
Wind Press
QNH
hPa
Press
MSL
hPa
Rain since
9am
mm
Dir  Spd
km/h
Gust
km/h
Spd
kts
Gust
kts
20/02:30am 21.8 24.9 21.5 98 0.2 S 7 11 4 6 1010.2 - 4.0
20/02:00am 22.0 24.9 21.7 98 0.2 SSE 9 13 5 7 1010.0 - 4.0
20/01:30am 22.2 24.8 21.9 98 0.2 SSE 11 17 6 9 1010.4 - 4.0
20/01:15am 22.2 24.4 21.9 98 0.2 SSE 13 17 7 9 1010.5 - 4.0
20/01:00am 22.4 24.3 22.1 98 0.2 SSE 15 20 8 11 1010.7 - 4.0
20/12:51am 22.5 24.1 22.2 98 0.2 SSE 17 20 9 11 1010.7 - 4.0
20/12:30am 22.7 25.2 22.4 98 0.2 SE 13 15 7 8 1010.9 - 4.0
20/12:00am 22.8 26.1 22.5 98 0.2 ESE 9 13 5 7 1011.2 1010.0 4.0
 
Date/Time
EST
Temp
°C
App
Temp
°C
Dew
Point
°C
Rel
Hum
%
Delta-T
°C
Wind Press
QNH
hPa
Press
MSL
hPa
Rain since
9am
mm
Dir  Spd
km/h
Gust
km/h
Spd
kts
Gust
kts
19/11:30pm 22.7 25.6 22.4 98 0.2 SE 11 13 6 7 1011.1 - 4.0
19/11:14pm 22.9 25.0 22.4 97 0.3 ESE 15 20 8 11 1011.1 - 4.0
19/11:00pm 23.2 26.7 22.9 98 0.2 NE 9 17 5 9 1011.2 - 3.6
19/10:48pm 23.6 26.9 22.6 94 0.7 NNW 9 13 5 7 1011.6 - 1.6
19/10:30pm 23.8 26.5 22.2 91 1.1 NE 11 15 6 8 1010.9 - 0.8
19/10:00pm 24.2 26.2 21.5 85 1.8 S 13 17 7 9 1010.6 - 0.6
19/09:30pm 23.9 25.4 22.0 89 1.3 S 17 20 9 11 1010.9 - 0.6
19/09:00pm 25.8 25.0 20.1 71 3.7 SSW 24 32 13 17 1010.5 1009.2 0.2
19/08:30pm 26.2 25.5 20.3 70 3.9 SSW 24 35 13 19 1009.8 - 0.2
19/08:00pm 28.0 33.2 22.9 74 3.5 CALM 0 9 0 5 1008.8 - 0.2
19/07:30pm 28.5 31.8 21.5 66 4.7 N 6 7 3 4 1008.0 - 0.2
19/07:00pm 29.0 32.2 21.7 64 4.9 N 7 9 4 5 1007.7 - 0.2
19/06:30pm 29.9 32.8 20.7 57 6.2 NNE 6 7 3 4 1007.2 - 0.2
19/06:00pm 30.6 33.1 19.9 52 7.1 N 6 7 3 4 1006.6 1005.4 0.2
19/05:30pm 30.5 32.7 19.5 51 7.2 NE 7 13 4 7 1006.3 - 0.2
19/05:00pm 31.1 33.1 19.1 48 7.9 N 7 11 4 6 1006.0 - 0.2
19/04:30pm 30.6 33.1 20.2 53 6.9 E 7 11 4 6 1006.1 - 0.2
19/04:00pm 30.5 33.8 21.8 59 5.9 E 7 13 4 7 1006.5 - 0.2
19/03:30pm 29.9 33.5 22.1 63 5.3 ENE 6 7 3 4 1006.9 - 0.2
19/03:00pm 29.2 31.8 21.9 64 5.0 SSW 11 15 6 8 1007.6 1006.4 0.2
19/02:30pm 29.0 31.7 22.2 66 4.6 SSW 11 13 6 7 1008.0 - 0.2
19/02:00pm 29.7 32.2 20.3 57 6.2 WSW 7 9 4 5 1008.4 - 0.2
19/01:30pm 29.9 32.4 21.0 59 6.0 WNW 9 13 5 7 1008.6 - 0.2
19/01:00pm 30.1 32.2 20.9 57 6.2 NNW 11 15 6 8 1009.0 - 0.2
19/12:30pm 29.9 32.0 20.2 56 6.4 NNW 9 13 5 7 1009.0 - 0.2
19/12:00pm 30.1 32.4 19.8 54 6.8 NNE 7 13 4 7 1009.2 1007.9 0.2
19/11:30am 29.4 32.0 20.5 58 5.9 N 7 15 4 8 1009.7 - 0.2
19/11:00am 29.1 31.9 21.6 64 5.1 NNE 9 13 5 7 1009.9 - 0.2
19/10:30am 28.1 30.1 21.6 68 4.4 N 13 19 7 10 1010.2 - 0.0
19/10:00am 27.0 30.2 22.4 76 3.1 NNE 9 11 5 6 1010.6 - 0.0
19/09:30am 26.2 30.4 23.1 83 2.1 W 6 7 3 4 1010.9 - 0.0
19/09:00am 25.3 29.0 23.9 92 1.0 SW 11 15 6 8 1010.7 1009.4 17.8
19/08:30am 24.9 27.9 24.6 98 0.2 WSW 17 20 9 11 1010.5 - 17.8
19/08:00am 25.1 29.2 23.9 93 0.8 S 9 11 5 6 1010.2 - 17.8
19/07:30am 24.9 28.3 23.3 91 1.1 S 11 13 6 7 1010.1 - 17.8
19/07:00am 24.4 28.4 23.7 96 0.5 SW 9 11 5 6 1010.2 - 17.8
19/06:30am 24.3 28.4 23.3 94 0.7 W 7 11 4 6 1009.9 - 17.8
19/06:00am 24.4 27.9 22.8 91 1.1 W 9 11 5 6 1009.0 1007.7 17.8
19/05:30am 24.5 28.2 22.6 89 1.3 W 7 9 4 5 1008.7 - 17.8
19/05:00am 24.5 29.0 21.6 84 1.9 CALM 0 0 0 0 1008.4 - 17.8
19/04:30am 24.1 27.6 22.2 89 1.3 ENE 7 9 4 5 1008.0 - 17.8
19/04:00am 24.1 27.3 23.1 94 0.7 E 11 15 6 8 1008.5 - 17.6
19/03:30am 24.0 28.0 23.7 98 0.2 E 9 13 5 7 1008.4 - 17.6
19/03:00am 23.8 26.9 23.5 98 0.2 ESE 13 17 7 9 1008.7 1007.4 17.6
19/02:30am 23.8 26.9 23.5 98 0.2 ESE 13 19 7 10 1009.1 - 17.6
19/02:00am 23.9 27.0 23.6 98 0.2 ESE 13 19 7 10 1009.5 - 17.6
19/01:30am 23.9 26.6 23.4 97 0.3 SE 15 20 8 11 1009.7 - 17.6
19/01:00am 23.9 26.3 23.6 98 0.2 SE 17 22 9 12 1010.1 - 17.6
19/12:30am 23.7 27.1 23.4 98 0.2 S 11 15 6 8 1010.5 - 17.6
19/12:00am 23.5 26.4 23.2 98 0.2 ESE 13 19 7 10 1010.6 1009.3 17.6
 
Date/Time
EST
Temp
°C
App
Temp
°C
Dew
Point
°C
Rel
Hum
%
Delta-T
°C
Wind Press
QNH
hPa
Press
MSL
hPa
Rain since
9am
mm
Dir  Spd
km/h
Gust
km/h
Spd
kts
Gust
kts
18/11:52pm 23.4 26.3 23.1 98 0.2 SE 13 20 7 11 1010.4 - 17.6
18/11:36pm 23.2 24.6 22.9 98 0.2 SSE 20 26 11 14 1010.5 - 17.4
18/11:30pm 23.3 24.4 23.0 98 0.2 SSE 22 26 12 14 1010.7 - 16.2
18/11:28pm 23.3 24.4 23.0 98 0.2 S 22 28 12 15 1010.7 - 16.2
18/11:02pm 23.6 25.6 22.9 96 0.5 S 17 30 9 16 1011.3 - 12.4
18/11:00pm 23.7 25.7 22.9 95 0.5 S 17 30 9 16 1011.5 - 11.0
18/10:52pm 23.9 25.6 23.0 95 0.6 SSW 19 35 10 19 1011.0 - 10.4
18/10:30pm 23.2 22.7 22.9 98 0.2 S 30 35 16 19 1011.0 - 9.2
18/10:16pm 24.2 25.6 22.8 92 0.9 S 20 28 11 15 1011.6 - 3.2
18/10:01pm 25.1 27.5 23.7 92 1.0 WSW 17 22 9 12 1011.5 - 1.6
18/10:00pm 25.2 28.1 23.8 92 1.0 WSW 15 22 8 12 1011.5 - 1.6
18/09:50pm 25.2 26.2 22.9 87 1.6 SW 22 30 12 16 1011.2 - 0.8
18/09:30pm 26.6 24.5 20.9 71 3.8 SW 33 54 18 29 1010.4 - 0.0
18/09:28pm 26.7 24.0 20.5 69 4.1 SW 35 54 19 29 1010.2 - 0.0
18/09:16pm 28.8 23.8 18.9 55 6.4 SW 43 57 23 31 1009.0 - 0.0
18/09:15pm 29.3 26.7 18.7 52 6.9 W 30 54 16 29 1009.0 - 0.0
18/09:00pm 33.5 30.1 17.6 38 10.3 W 32 41 17 22 1007.5 1006.3 0.0
18/08:30pm 32.9 31.3 17.5 39 9.9 WNW 22 39 12 21 1007.5 - 0.0
18/08:00pm 33.9 32.6 17.2 37 10.8 NNW 20 32 11 17 1007.3 - 0.0
18/07:30pm 35.0 35.6 16.8 34 11.7 N 9 11 5 6 1006.7 - 0.0
18/07:00pm 35.9 36.0 16.6 31 12.4 N 11 17 6 9 1006.4 - 0.0
18/06:30pm 36.9 37.4 16.5 30 13.1 NW 9 11 5 6 1005.9 - 0.0
18/06:00pm 37.7 37.8 16.6 28 13.7 WNW 11 15 6 8 1005.8 1004.5 0.0
18/05:30pm 37.5 37.2 16.4 28 13.6 N 13 17 7 9 1005.7 - 0.0
18/05:00pm 37.5 37.8 17.0 30 13.3 NW 11 17 6 9 1005.7 - 0.0
18/04:30pm 38.1 39.1 16.9 28 13.8 WNW 7 11 4 6 1005.7 - 0.0
18/04:00pm 37.9 38.3 17.3 29 13.5 N 11 17 6 9 1006.2 - 0.0
18/03:30pm 38.1 38.5 16.4 27 14.0 NNE 9 15 5 8 1006.7 - 0.0
18/03:00pm 37.5 36.6 15.9 28 13.9 WNW 15 20 8 11 1007.3 1006.1 0.0
18/02:30pm 37.8 38.2 17.2 29 13.4 N 11 20 6 11 1007.8 - 0.0
18/02:00pm 37.4 37.3 16.9 30 13.3 NNW 13 24 7 13 1008.4 - 0.0
18/01:30pm 36.6 36.4 17.7 32 12.4 N 15 24 8 13 1009.0 - 0.0
18/01:00pm 36.3 36.2 17.9 33 12.1 N 15 20 8 11 1009.6 - 0.0
18/12:30pm 35.8 35.3 17.9 34 11.7 NNW 17 24 9 13 1010.2 - 0.0
18/12:00pm 35.5 35.7 18.6 37 11.2 NNW 15 37 8 20 1010.8 1009.5 0.0
18/11:30am 34.9 35.3 18.9 39 10.6 NNW 15 24 8 13 1011.2 - 0.0
18/11:00am 33.6 33.0 18.9 41 9.7 N 20 30 11 16 1011.7 - 0.0
18/10:30am 32.9 32.7 19.4 45 8.9 N 19 30 10 16 1012.0 - 0.0
18/10:00am 32.1 33.3 20.0 48 8.1 NNW 13 20 7 11 1012.4 - 0.0
18/09:30am 30.7 32.5 20.3 53 6.9 N 11 15 6 8 1012.7 - 0.0
18/09:00am 29.9 31.4 21.3 60 5.8 N 15 26 8 14 1012.8 1011.6 0.0
18/08:30am 28.2 29.8 20.7 63 5.0 N 13 19 7 10 1012.9 - 0.0
18/08:00am 27.7 29.0 20.8 66 4.6 NNE 15 22 8 12 1012.9 - 0.0
18/07:30am 26.2 27.3 20.5 71 3.8 NNE 15 20 8 11 1012.7 - 0.0
18/07:00am 25.4 26.1 20.4 74 3.3 NNE 17 24 9 13 1012.3 - 0.0
18/06:30am 24.6 26.6 20.7 79 2.6 NE 11 15 6 8 1012.1 - 0.0
18/06:00am 23.9 26.1 20.4 81 2.3 NE 9 11 5 6 1012.0 1010.8 0.0
18/05:30am 24.2 26.1 20.5 80 2.4 NE 11 13 6 7 1012.0 - 0.0
18/05:00am 24.4 26.3 20.5 79 2.6 NE 11 17 6 9 1011.6 - 0.0
18/04:30am 24.5 25.7 20.6 79 2.6 NE 15 17 8 9 1011.1 - 0.0
18/04:00am 24.5 26.4 20.6 79 2.6 NE 11 17 6 9 1011.0 - 0.0
18/03:30am 24.8 26.7 20.5 77 2.8 NE 11 15 6 8 1010.9 - 0.0
18/03:00am 25.3 26.6 20.1 73 3.4 NE 13 17 7 9 1010.9 1009.6 0.0
18/02:30am 25.7 27.3 20.0 71 3.7 NE 11 17 6 9 1010.9 - 0.0
18/02:00am 26.1 27.2 19.7 68 4.2 NE 13 17 7 9 1011.1 - 0.0
18/01:30am 26.5 27.6 19.6 66 4.5 NE 13 17 7 9 1011.4 - 0.0
18/01:00am 26.9 27.8 19.3 63 4.9 NE 13 17 7 9 1011.7 - 0.0
18/12:30am 27.7 28.2 19.2 60 5.5 NNE 15 20 8 11 1012.2 - 0.0
18/12:00am 28.0 28.9 19.2 58 5.7 NE 13 19 7 10 1012.2 1011.0 0.0
 
Date/Time
EST
Temp
°C
App
Temp
°C
Dew
Point
°C
Rel
Hum
%
Delta-T
°C
Wind Press
QNH
hPa
Press
MSL
hPa
Rain since
9am
mm
Dir  Spd
km/h
Gust
km/h
Spd
kts
Gust
kts
17/11:30pm 28.6 28.7 19.2 56 6.1 N 17 22 9 12 1012.2 - 0.0
17/11:00pm 29.2 29.5 19.5 56 6.4 NNE 17 22 9 12 1012.4 - 0.0
17/10:30pm 29.8 29.0 19.2 53 6.9 NNE 22 30 12 16 1012.1 - 0.0
17/10:00pm 30.7 28.9 18.8 49 7.8 NNE 26 35 14 19 1012.1 - 0.0
17/09:30pm 31.5 30.1 17.0 41 9.2 NNE 20 32 11 17 1011.8 - 0.0
17/09:00pm 30.5 30.7 15.8 41 9.2 NE 9 17 5 9 1011.4 1010.2 0.0
17/08:30pm 31.7 31.5 14.8 36 10.4 NNE 9 11 5 6 1011.0 - 0.0
17/08:00pm 32.2 31.7 14.8 35 10.8 NE 11 13 6 7 1010.6 - 0.0
17/07:30pm 33.2 32.5 14.3 32 11.7 NE 11 11 6 6 1010.3 - 0.0
17/07:00pm 33.8 33.3 14.8 32 11.8 NE 11 13 6 7 1010.1 - 0.0
17/06:30pm 35.1 34.4 14.4 29 12.9 ENE 11 15 6 8 1009.9 - 0.0
17/06:00pm 36.2 35.3 13.6 25 14.0 ENE 11 17 6 9 1009.8 1008.5 0.0
17/05:30pm 36.6 36.0 13.4 25 14.3 E 9 13 5 7 1009.8 - 0.0
17/05:00pm 36.2 34.9 13.6 25 13.9 E 13 15 7 8 1010.0 - 0.0
17/04:30pm 37.3 36.6 13.3 23 14.8 NNE 9 17 5 9 1010.2 - 0.0
17/04:00pm 37.3 36.6 13.3 23 14.8 ESE 9 17 5 9 1010.4 - 0.0
17/03:30pm 37.4 37.4 15.2 26 14.1 NE 9 20 5 11 1010.6 - 0.0
17/03:00pm 36.8 36.6 14.7 26 13.9 E 9 19 5 10 1010.9 1009.6 0.0
17/02:30pm 36.4 36.1 15.5 29 13.3 E 11 17 6 9 1011.3 - 0.0
17/02:00pm 36.0 36.2 16.7 31 12.4 E 11 17 6 9 1011.7 - 0.0
17/01:30pm 34.9 34.9 16.2 32 11.9 SE 11 19 6 10 1012.2 - 0.0
17/01:00pm 34.5 34.7 16.8 34 11.4 E 11 19 6 10 1012.8 - 0.0
17/12:30pm 33.8 33.6 17.5 38 10.5 E 15 26 8 14 1013.2 - 0.0
17/12:00pm 33.3 33.8 18.3 41 9.8 E 13 19 7 10 1013.6 1012.4 0.0
17/11:30am 32.5 32.6 18.3 43 9.3 E 15 22 8 12 1014.3 - 0.0
17/11:00am 31.2 32.6 19.5 49 7.7 SE 11 19 6 10 1014.9 - 0.0
17/10:30am 30.4 31.7 19.4 51 7.2 E 11 15 6 8 1015.2 - 0.0
17/10:00am 30.1 32.0 20.6 56 6.3 E 11 17 6 9 1015.4 - 0.0
17/09:30am 29.2 31.4 21.2 62 5.4 E 11 20 6 11 1015.4 - 0.0
17/09:00am 28.0 29.4 21.1 66 4.6 E 15 24 8 13 1015.5 1014.2 0.0
17/08:30am 27.5 28.7 21.5 70 4.0 ENE 17 24 9 13 1015.2 - 0.0
17/08:00am 26.3 27.5 21.5 75 3.2 NNE 17 20 9 11 1015.1 - 0.0
17/07:30am 25.6 26.9 21.7 79 2.6 NNE 17 20 9 11 1014.8 - 0.0
17/07:00am 24.9 27.9 22.0 84 1.9 NE 9 11 5 6 1014.5 - 0.0
17/06:30am 23.7 27.2 21.8 89 1.3 ENE 6 7 3 4 1014.4 - 0.0
17/06:00am 23.2 26.6 21.6 91 1.1 E 6 7 3 4 1014.2 1012.9 0.0
17/05:30am 23.6 26.4 21.5 88 1.4 ENE 9 13 5 7 1013.8 - 0.0
17/05:00am 23.9 25.8 21.4 86 1.7 NE 13 17 7 9 1013.5 - 0.0
17/04:30am 24.0 25.9 21.3 85 1.8 NE 13 17 7 9 1013.4 - 0.0
17/04:00am 24.1 26.1 20.8 82 2.2 NE 11 15 6 8 1013.3 - 0.0
17/03:30am 24.5 26.1 20.8 80 2.4 NE 13 17 7 9 1013.4 - 0.0
17/03:00am 24.9 26.1 20.6 77 2.8 NE 15 20 8 11 1013.5 1012.3 0.0

Other Formats:

Comma delimited format used in spreadsheet applications
http://www.bom.gov.au/fwo/IDQ60801/IDQ60801.94363.axf

JavaScript Object Notation format (JSON) in row-major order
http://www.bom.gov.au/fwo/IDQ60801/IDQ60801.94363.json